createdAt,value
2023-05-21T00:01:16.355Z,0.35
2023-05-21T00:03:45.960Z,0.40
2023-05-21T00:06:15.707Z,0.50
2023-05-21T00:08:42.693Z,0.30
2023-05-21T00:11:09.154Z,0.38
2023-05-21T00:13:35.437Z,0.30
2023-05-21T00:16:01.778Z,0.40
2023-05-21T00:18:28.393Z,0.40
2023-05-21T00:20:54.732Z,0.30
2023-05-21T00:23:21.418Z,0.28
2023-05-21T00:25:48.017Z,0.20
2023-05-21T00:28:14.291Z,0.50
2023-05-21T00:30:40.966Z,0.20
2023-05-21T00:33:07.587Z,0.30
2023-05-21T00:35:34.287Z,0.30
2023-05-21T00:38:00.934Z,0.20
2023-05-21T00:40:27.543Z,0.20
2023-05-21T00:42:56.961Z,0.30
2023-05-21T00:45:25.479Z,0.30
2023-05-21T00:47:54.646Z,0.20
2023-05-21T00:50:22.865Z,0.30
2023-05-21T00:52:49.848Z,0.20
2023-05-21T00:55:16.229Z,0.30
2023-05-21T00:58:00.767Z,0.30
2023-05-21T01:00:28.176Z,0.20
2023-05-21T01:02:54.984Z,0.22
2023-05-21T01:05:22.195Z,0.20
2023-05-21T01:07:48.516Z,0.40
2023-05-21T01:10:14.914Z,1.48
2023-05-21T01:12:42.822Z,0.30
2023-05-21T01:15:10.721Z,0.30
2023-05-21T01:17:39.148Z,0.35
2023-05-21T01:20:10.247Z,0.30
2023-05-21T01:22:39.532Z,0.20
2023-05-21T01:25:06.583Z,0.15
2023-05-21T01:27:32.928Z,0.35
2023-05-21T01:29:59.432Z,0.60
2023-05-21T01:32:38.807Z,0.20
2023-05-21T01:35:08.163Z,0.22
2023-05-21T01:37:44.745Z,0.22
2023-05-21T01:40:13.478Z,0.20
2023-05-21T01:42:42.470Z,0.30
2023-05-21T01:45:09.579Z,0.20
2023-05-21T01:47:36.785Z,0.30
2023-05-21T01:50:04.100Z,0.45
2023-05-21T01:52:30.488Z,0.20
2023-05-21T01:54:57.166Z,0.30
2023-05-21T01:57:23.544Z,0.15
2023-05-21T01:59:50.085Z,0.20
2023-05-21T02:02:16.454Z,0.30
2023-05-21T02:04:44.068Z,0.20
2023-05-21T02:07:10.455Z,0.20
2023-05-21T02:09:36.810Z,0.10
2023-05-21T02:12:03.246Z,0.10
2023-05-21T02:14:29.791Z,0.17
2023-05-21T02:16:56.810Z,0.28
2023-05-21T02:19:23.161Z,0.10
2023-05-21T02:21:49.502Z,0.30
2023-05-21T02:24:16.683Z,0.20
2023-05-21T02:26:43.334Z,0.30
2023-05-21T02:29:09.647Z,0.20
2023-05-21T02:31:36.002Z,0.20
2023-05-21T02:34:02.321Z,0.40
2023-05-21T02:36:28.815Z,0.20
2023-05-21T02:38:57.691Z,0.20
2023-05-21T02:41:23.982Z,0.30
2023-05-21T02:43:50.288Z,0.20
2023-05-21T02:46:16.598Z,0.40
2023-05-21T02:48:43.004Z,0.28
2023-05-21T02:51:09.310Z,0.20
2023-05-21T02:53:35.635Z,0.20
2023-05-21T02:56:02.086Z,0.22
2023-05-21T02:58:28.413Z,0.20
2023-05-21T03:00:54.829Z,0.22
2023-05-21T03:03:21.282Z,0.30
2023-05-21T03:05:48.296Z,0.10
2023-05-21T03:08:14.612Z,0.30
2023-05-21T03:10:41.182Z,0.50
2023-05-21T03:13:09.726Z,0.20
2023-05-21T03:15:36.555Z,0.20
2023-05-21T03:18:03.113Z,0.30
2023-05-21T03:20:29.529Z,0.22
2023-05-21T03:22:55.866Z,0.20
2023-05-21T03:25:25.018Z,0.40
2023-05-21T03:27:52.323Z,0.30
2023-05-21T03:30:18.689Z,0.22
2023-05-21T03:32:45.382Z,0.20
2023-05-21T03:35:11.717Z,0.20
2023-05-21T03:37:38.081Z,0.30
2023-05-21T03:40:04.822Z,0.20
2023-05-21T03:42:31.121Z,0.15
2023-05-21T03:44:57.422Z,0.25
2023-05-21T03:47:23.757Z,0.30
2023-05-21T03:49:50.146Z,0.20
2023-05-21T03:52:16.535Z,0.10
2023-05-21T03:54:42.847Z,0.15
2023-05-21T03:57:09.423Z,0.30
2023-05-21T03:59:35.991Z,0.30
2023-05-21T04:02:02.403Z,0.30
2023-05-21T04:04:29.436Z,0.20
2023-05-21T04:06:55.813Z,0.40
2023-05-21T04:09:22.141Z,0.20
2023-05-21T04:11:48.505Z,0.17
2023-05-21T04:14:14.805Z,0.30
2023-05-21T04:16:44.161Z,0.20
2023-05-21T04:19:10.570Z,0.30
2023-05-21T04:21:37.095Z,0.40
2023-05-21T04:24:03.898Z,0.30
2023-05-21T04:26:34.197Z,0.40
2023-05-21T04:29:03.700Z,0.30
2023-05-21T04:31:31.199Z,0.40
2023-05-21T04:33:57.935Z,0.22
2023-05-21T04:36:24.448Z,0.25
2023-05-21T04:38:50.829Z,0.25
2023-05-21T04:41:18.899Z,0.40
2023-05-21T04:43:45.285Z,0.40
2023-05-21T04:46:11.845Z,0.30
2023-05-21T04:48:38.142Z,0.30
2023-05-21T04:51:06.392Z,0.40
2023-05-21T04:53:33.991Z,0.30
2023-05-21T04:56:00.394Z,0.40
2023-05-21T04:58:27.852Z,0.30
2023-05-21T05:00:54.493Z,0.20
2023-05-21T05:03:20.942Z,0.22
2023-05-21T05:05:47.331Z,0.22
2023-05-21T05:08:15.854Z,0.32
2023-05-21T05:10:42.558Z,0.28
2023-05-21T05:13:08.966Z,0.30
2023-05-21T05:15:35.606Z,0.30
2023-05-21T05:18:02.242Z,0.43
2023-05-21T05:20:28.602Z,0.30
2023-05-21T05:22:54.905Z,0.22
2023-05-21T05:25:21.212Z,0.30
2023-05-21T05:27:47.521Z,0.35
2023-05-21T05:30:13.814Z,0.38
2023-05-21T05:32:40.274Z,0.30
2023-05-21T05:35:07.228Z,0.30
2023-05-21T05:37:33.592Z,0.25
2023-05-21T05:39:59.976Z,0.30
2023-05-21T05:42:26.742Z,0.35
2023-05-21T05:44:54.103Z,0.40
2023-05-21T05:47:21.714Z,0.40
2023-05-21T05:49:48.064Z,0.30
2023-05-21T05:52:14.351Z,0.30
2023-05-21T05:54:40.658Z,0.22
2023-05-21T05:57:06.952Z,0.38
2023-05-21T05:59:33.857Z,0.40
2023-05-21T06:02:00.791Z,0.30
2023-05-21T06:04:30.064Z,0.30
2023-05-21T06:07:00.488Z,0.35
2023-05-21T06:09:26.822Z,0.40
2023-05-21T06:11:53.208Z,0.40
2023-05-21T06:14:19.558Z,0.38
2023-05-21T06:16:46.099Z,52.88
2023-05-21T06:19:12.491Z,5.35
2023-05-21T06:21:38.843Z,10.32
2023-05-21T06:24:05.427Z,1.40
2023-05-21T06:26:31.815Z,0.45
2023-05-21T06:28:58.254Z,0.30
2023-05-21T06:31:24.624Z,0.30
2023-05-21T06:33:51.273Z,0.20
2023-05-21T06:36:17.979Z,0.40
2023-05-21T06:38:44.283Z,0.22
2023-05-21T06:41:11.025Z,0.30
2023-05-21T06:43:37.402Z,0.30
2023-05-21T06:46:03.734Z,0.30
2023-05-21T06:48:30.021Z,0.45
2023-05-21T06:50:56.345Z,0.38
2023-05-21T06:53:22.685Z,0.60
2023-05-21T06:55:53.518Z,0.80
2023-05-21T06:58:19.911Z,0.60
2023-05-21T07:00:46.325Z,0.38
2023-05-21T07:03:13.064Z,0.50
2023-05-21T07:05:39.975Z,0.55
2023-05-21T07:08:06.590Z,0.40
2023-05-21T07:10:32.885Z,0.47
2023-05-21T07:12:59.161Z,0.98
2023-05-21T07:15:25.533Z,2.03
2023-05-21T07:17:51.894Z,0.68
2023-05-21T07:20:18.235Z,0.70
2023-05-21T07:22:44.714Z,0.50
2023-05-21T07:25:11.581Z,0.57
2023-05-21T07:27:37.919Z,0.63
2023-05-21T07:30:04.557Z,1.60
2023-05-21T07:32:31.055Z,0.80
2023-05-21T07:35:01.786Z,0.70
2023-05-21T07:37:28.594Z,0.80
2023-05-21T07:39:56.759Z,0.80
2023-05-21T07:42:23.190Z,0.60
2023-05-21T07:44:49.495Z,0.50
2023-05-21T07:47:15.860Z,0.40
2023-05-21T07:49:42.296Z,0.40
2023-05-21T07:52:08.630Z,0.50
2023-05-21T07:54:35.263Z,0.80
2023-05-21T07:57:04.514Z,0.60
2023-05-21T07:59:31.653Z,0.35
2023-05-21T08:01:58.176Z,0.70
2023-05-21T08:04:24.875Z,0.60
2023-05-21T08:06:51.320Z,0.70
2023-05-21T08:09:18.891Z,0.65
2023-05-21T08:11:45.710Z,0.50
2023-05-21T08:14:12.130Z,0.50
2023-05-21T08:16:38.910Z,0.60
2023-05-21T08:19:05.340Z,0.50
2023-05-21T08:21:32.622Z,0.32
2023-05-21T08:24:00.289Z,0.52
2023-05-21T08:26:26.628Z,0.57
2023-05-21T08:28:52.896Z,0.40
2023-05-21T08:31:19.238Z,0.63
2023-05-21T08:33:52.617Z,0.65
2023-05-21T08:36:19.100Z,0.70
2023-05-21T08:38:45.772Z,0.80
2023-05-21T08:41:12.668Z,0.65
2023-05-21T08:43:39.555Z,0.93
2023-05-21T08:46:06.640Z,0.50
2023-05-21T08:48:33.147Z,0.50
2023-05-21T08:51:02.003Z,0.40
2023-05-21T08:53:33.877Z,0.32
2023-05-21T08:56:01.632Z,0.32
2023-05-21T08:58:28.696Z,0.40
2023-05-21T09:00:55.146Z,0.50
2023-05-21T09:03:22.324Z,0.40
2023-05-21T09:05:49.551Z,0.55
2023-05-21T09:08:21.688Z,0.50
2023-05-21T09:10:51.451Z,0.70
2023-05-21T09:13:19.584Z,0.70
2023-05-21T09:15:46.892Z,0.60
2023-05-21T09:18:13.953Z,0.60
2023-05-21T09:20:40.625Z,0.60
2023-05-21T09:23:12.195Z,0.40
2023-05-21T09:25:39.128Z,0.40
2023-05-21T09:28:11.425Z,0.52
2023-05-21T09:30:38.085Z,0.73
2023-05-21T09:33:04.677Z,0.70
2023-05-21T09:35:31.020Z,0.82
2023-05-21T09:37:57.680Z,1.15
2023-05-21T09:40:24.036Z,2.65
2023-05-21T09:42:51.119Z,1.52
2023-05-21T09:45:20.794Z,1.65
2023-05-21T09:47:48.221Z,1.35
2023-05-21T09:50:18.166Z,1.30
2023-05-21T09:52:44.652Z,1.25
2023-05-21T09:55:12.590Z,1.30
2023-05-21T09:57:42.820Z,0.55
2023-05-21T10:00:10.965Z,0.63
2023-05-21T10:02:37.920Z,0.90
2023-05-21T10:05:08.858Z,0.98
2023-05-21T10:07:35.977Z,0.85
2023-05-21T10:10:03.949Z,0.80
2023-05-21T10:12:30.687Z,0.60
2023-05-21T10:15:01.434Z,0.90
2023-05-21T10:17:28.268Z,2.45
2023-05-21T10:19:55.900Z,1.50
2023-05-21T10:22:25.560Z,1.58
2023-05-21T10:24:55.364Z,1.35
2023-05-21T10:27:22.575Z,1.02
2023-05-21T10:29:48.879Z,1.05
2023-05-21T10:32:16.526Z,1.73
2023-05-21T10:34:43.738Z,1.27
2023-05-21T10:37:12.549Z,1.25
2023-05-21T10:39:39.071Z,1.13
2023-05-21T10:42:08.491Z,1.08
2023-05-21T10:44:44.123Z,1.05
2023-05-21T10:47:23.949Z,1.67
2023-05-21T10:50:11.249Z,1.02
2023-05-21T10:52:43.415Z,1.63
2023-05-21T10:55:15.746Z,1.10
2023-05-21T10:57:51.215Z,1.40
2023-05-21T11:00:19.800Z,1.10
2023-05-21T11:02:46.374Z,1.42
2023-05-21T11:05:12.737Z,1.40
2023-05-21T11:07:57.024Z,1.35
2023-05-21T11:10:44.301Z,1.45
2023-05-21T11:13:12.114Z,1.30
2023-05-21T11:15:57.492Z,1.30
2023-05-21T11:18:43.793Z,1.27
2023-05-21T11:21:11.064Z,1.67
2023-05-21T11:23:56.836Z,1.60
2023-05-21T11:26:24.029Z,1.45
2023-05-21T11:28:50.974Z,1.25
2023-05-21T11:31:27.019Z,1.27
2023-05-21T11:34:08.550Z,1.40
2023-05-21T11:36:37.395Z,1.48
2023-05-21T11:39:11.714Z,1.00
2023-05-21T11:41:51.006Z,0.70
2023-05-21T11:44:17.467Z,0.75
2023-05-21T11:46:44.166Z,0.63
2023-05-21T11:49:10.625Z,1.00
2023-05-21T11:51:37.055Z,1.08
2023-05-21T11:54:03.406Z,0.90
2023-05-21T11:56:31.847Z,1.20
2023-05-21T11:58:58.163Z,0.80
2023-05-21T12:01:24.704Z,0.82
2023-05-21T12:03:51.133Z,0.80
2023-05-21T12:06:18.176Z,1.25
2023-05-21T12:08:45.461Z,0.65
2023-05-21T12:11:11.765Z,0.70
2023-05-21T12:13:38.195Z,0.70
2023-05-21T12:16:06.820Z,1.00
2023-05-21T12:18:33.521Z,0.70
2023-05-21T12:21:00.526Z,0.80
2023-05-21T12:23:26.807Z,1.00
2023-05-21T12:25:56.183Z,0.60
2023-05-21T12:28:22.737Z,0.63
2023-05-21T12:30:49.073Z,0.68
2023-05-21T12:33:17.911Z,0.60
2023-05-21T12:35:50.353Z,0.65
2023-05-21T12:38:16.932Z,0.50
2023-05-21T12:40:45.313Z,0.47
2023-05-21T12:43:11.759Z,0.40
2023-05-21T12:45:39.385Z,0.50
2023-05-21T12:48:06.051Z,0.70
2023-05-21T12:50:32.698Z,0.68
2023-05-21T12:52:59.081Z,0.88
2023-05-21T12:55:28.633Z,0.60
2023-05-21T12:58:05.554Z,0.73
2023-05-21T13:00:32.342Z,1.00
2023-05-21T13:03:00.836Z,0.80
2023-05-21T13:05:27.213Z,0.80
2023-05-21T13:07:53.463Z,1.23
2023-05-21T13:10:19.877Z,0.90
2023-05-21T13:12:46.344Z,1.30
2023-05-21T13:15:12.885Z,1.25
2023-05-21T13:17:39.356Z,1.83
2023-05-21T13:20:16.145Z,1.90
2023-05-21T13:22:43.512Z,1.67
2023-05-21T13:25:11.225Z,1.73
2023-05-21T13:27:37.919Z,1.35
2023-05-21T13:30:05.471Z,1.35
2023-05-21T13:32:31.834Z,1.40
2023-05-21T13:34:58.192Z,1.35
2023-05-21T13:37:24.545Z,1.58
2023-05-21T13:39:50.875Z,1.63
2023-05-21T13:42:17.217Z,1.60
2023-05-21T13:44:43.598Z,1.15
2023-05-21T13:47:10.651Z,1.73
2023-05-21T13:49:37.293Z,1.20
2023-05-21T13:52:03.898Z,1.30
2023-05-21T13:54:30.624Z,1.50
2023-05-21T13:56:57.086Z,1.90
2023-05-21T13:59:23.388Z,2.03
2023-05-21T14:01:49.964Z,2.30
2023-05-21T14:04:17.160Z,1.80
2023-05-21T14:06:43.505Z,1.75
2023-05-21T14:09:09.802Z,1.52
2023-05-21T14:11:36.568Z,1.38
2023-05-21T14:14:03.028Z,1.27
2023-05-21T14:16:29.623Z,1.58
2023-05-21T14:18:56.850Z,2.03
2023-05-21T14:21:23.419Z,1.52
2023-05-21T14:23:49.935Z,1.50
2023-05-21T14:26:16.301Z,1.90
2023-05-21T14:28:43.086Z,1.88
2023-05-21T14:31:09.594Z,1.92
2023-05-21T14:33:36.651Z,1.95
2023-05-21T14:36:03.686Z,1.80
2023-05-21T14:38:29.983Z,2.13
2023-05-21T14:40:56.341Z,1.88
2023-05-21T14:43:22.708Z,2.17
2023-05-21T14:45:49.559Z,1.88
2023-05-21T14:48:22.669Z,1.90
2023-05-21T14:50:50.060Z,1.95
2023-05-21T14:53:17.236Z,2.15
2023-05-21T14:55:43.641Z,2.00
2023-05-21T14:58:10.027Z,2.28
2023-05-21T15:00:36.857Z,1.85
2023-05-21T15:03:03.353Z,2.25
2023-05-21T15:05:29.886Z,1.88
2023-05-21T15:07:56.481Z,2.25
2023-05-21T15:10:26.354Z,2.40
2023-05-21T15:12:52.903Z,2.05
2023-05-21T15:15:22.398Z,2.00
2023-05-21T15:17:49.400Z,2.10
2023-05-21T15:20:16.054Z,2.45
2023-05-21T15:22:42.569Z,2.42
2023-05-21T15:25:09.276Z,2.80
2023-05-21T15:27:35.666Z,2.45
2023-05-21T15:30:02.302Z,2.45
2023-05-21T15:32:28.781Z,2.28
2023-05-21T15:34:55.365Z,1.88
2023-05-21T15:37:21.774Z,2.03
2023-05-21T15:39:50.777Z,2.60
2023-05-21T15:42:17.130Z,2.63
2023-05-21T15:44:43.460Z,2.50
2023-05-21T15:47:09.898Z,2.15
2023-05-21T15:49:36.320Z,2.17
2023-05-21T15:52:03.014Z,2.70
2023-05-21T15:54:30.359Z,2.00
2023-05-21T15:56:57.089Z,2.17
2023-05-21T15:59:25.860Z,2.47
2023-05-21T16:01:52.248Z,1.92
2023-05-21T16:04:20.201Z,2.13
2023-05-21T16:06:47.472Z,2.78
2023-05-21T16:09:14.374Z,2.85
2023-05-21T16:11:40.809Z,2.67
2023-05-21T16:14:07.260Z,2.65
2023-05-21T16:16:33.988Z,2.50
2023-05-21T16:19:01.424Z,2.78
2023-05-21T16:21:27.934Z,2.70
2023-05-21T16:23:54.237Z,2.42
2023-05-21T16:26:21.304Z,2.28
2023-05-21T16:28:47.606Z,2.70
2023-05-21T16:31:14.127Z,2.63
2023-05-21T16:33:40.557Z,2.65
2023-05-21T16:36:06.976Z,2.70
2023-05-21T16:38:33.297Z,3.03
2023-05-21T16:41:00.035Z,3.08
2023-05-21T16:43:26.669Z,3.03
2023-05-21T16:45:53.504Z,2.75
2023-05-21T16:48:20.030Z,2.83
2023-05-21T16:50:49.433Z,2.78
2023-05-21T16:53:16.259Z,4.55
2023-05-21T16:55:43.199Z,11.05
2023-05-21T16:58:10.843Z,234.05
2023-05-21T17:00:37.492Z,340.63
2023-05-21T17:03:04.012Z,241.20
2023-05-21T17:05:30.493Z,9.55
2023-05-21T17:07:56.906Z,3.25
2023-05-21T17:10:23.940Z,3.38
2023-05-21T17:12:50.450Z,2.63
2023-05-21T17:15:16.868Z,2.80
2023-05-21T17:17:43.214Z,2.67
2023-05-21T17:20:09.967Z,3.30
2023-05-21T17:22:36.823Z,3.05
2023-05-21T17:25:03.255Z,3.70
2023-05-21T17:27:29.823Z,3.20
2023-05-21T17:29:57.139Z,2.72
2023-05-21T17:32:23.438Z,2.63
2023-05-21T17:34:49.906Z,36.25
2023-05-21T17:37:16.301Z,185.23
2023-05-21T17:39:42.658Z,19.58
2023-05-21T17:42:09.051Z,138.27
2023-05-21T17:44:37.950Z,5.05
2023-05-21T17:47:04.471Z,11.57
2023-05-21T17:49:31.480Z,15.55
2023-05-21T17:51:59.354Z,4.30
2023-05-21T17:54:25.849Z,3.22
2023-05-21T17:56:52.268Z,3.33
2023-05-21T17:59:18.650Z,3.13
2023-05-21T18:01:44.933Z,2.88
2023-05-21T18:04:12.818Z,2.75
2023-05-21T18:06:39.532Z,2.40
2023-05-21T18:09:10.440Z,2.97
2023-05-21T18:11:36.894Z,2.85
2023-05-21T18:14:04.009Z,2.80
2023-05-21T18:16:31.502Z,3.20
2023-05-21T18:18:57.948Z,3.10
2023-05-21T18:21:26.124Z,2.63
2023-05-21T18:23:52.406Z,3.60
2023-05-21T18:26:20.439Z,2.70
2023-05-21T18:28:46.880Z,3.10
2023-05-21T18:31:13.277Z,3.15
2023-05-21T18:33:39.650Z,3.25
2023-05-21T18:36:06.104Z,2.97
2023-05-21T18:38:32.362Z,2.80
2023-05-21T18:40:58.679Z,3.65
2023-05-21T18:43:25.143Z,3.17
2023-05-21T18:45:51.426Z,3.20
2023-05-21T18:48:17.837Z,3.25
2023-05-21T18:50:44.169Z,3.78
2023-05-21T18:53:10.499Z,3.67
2023-05-21T18:55:36.770Z,4.03
2023-05-21T18:58:03.164Z,4.68
2023-05-21T19:00:29.602Z,3.83
2023-05-21T19:02:56.264Z,4.28
2023-05-21T19:05:22.731Z,5.80
2023-05-21T19:07:49.073Z,4.20
2023-05-21T19:10:16.146Z,3.63
2023-05-21T19:12:43.397Z,3.80
2023-05-21T19:15:10.017Z,3.33
2023-05-21T19:17:38.811Z,4.13
2023-05-21T19:20:08.368Z,5.57
2023-05-21T19:22:34.915Z,4.40
2023-05-21T19:25:01.265Z,4.35
2023-05-21T19:27:29.264Z,4.03
2023-05-21T19:29:55.896Z,4.20
2023-05-21T19:32:23.584Z,4.03
2023-05-21T19:34:50.679Z,4.72
2023-05-21T19:37:17.166Z,3.53
2023-05-21T19:39:43.518Z,3.63
2023-05-21T19:42:10.013Z,3.85
2023-05-21T19:44:40.275Z,4.22
2023-05-21T19:47:06.824Z,4.60
2023-05-21T19:49:33.409Z,3.92
2023-05-21T19:51:59.954Z,3.60
2023-05-21T19:54:26.280Z,3.58
2023-05-21T19:56:52.634Z,3.33
2023-05-21T19:59:18.946Z,3.65
2023-05-21T20:01:45.462Z,3.13
2023-05-21T20:04:12.029Z,3.72
2023-05-21T20:06:38.768Z,3.13
2023-05-21T20:09:08.070Z,3.30
2023-05-21T20:11:34.542Z,3.30
2023-05-21T20:14:02.350Z,2.97
2023-05-21T20:16:29.489Z,2.95
2023-05-21T20:18:58.019Z,3.00
2023-05-21T20:21:24.493Z,3.33
2023-05-21T20:23:50.814Z,3.17
2023-05-21T20:26:18.834Z,3.08
2023-05-21T20:28:46.080Z,4.18
2023-05-21T20:31:12.665Z,3.53
2023-05-21T20:33:41.096Z,4.10
2023-05-21T20:36:07.852Z,3.72
2023-05-21T20:38:34.238Z,4.60
2023-05-21T20:41:01.260Z,5.13
2023-05-21T20:43:27.595Z,4.93
2023-05-21T20:45:59.539Z,4.30
2023-05-21T20:48:28.972Z,4.28
2023-05-21T20:50:58.678Z,4.10
2023-05-21T20:53:25.934Z,3.75
2023-05-21T20:55:54.429Z,3.90
2023-05-21T20:58:21.214Z,3.55
2023-05-21T21:00:47.604Z,3.33
2023-05-21T21:03:17.810Z,3.60
2023-05-21T21:05:44.480Z,2.58
2023-05-21T21:08:10.872Z,2.67
2023-05-21T21:10:38.305Z,2.85
2023-05-21T21:13:06.876Z,2.83
2023-05-21T21:15:33.527Z,2.60
2023-05-21T21:17:59.952Z,2.35
2023-05-21T21:20:26.789Z,2.38
2023-05-21T21:22:53.112Z,2.60
2023-05-21T21:25:19.463Z,2.50
2023-05-21T21:27:45.785Z,2.33
2023-05-21T21:30:12.260Z,2.53
2023-05-21T21:32:38.588Z,2.25
2023-05-21T21:35:05.125Z,2.05
2023-05-21T21:37:31.434Z,2.30
2023-05-21T21:39:57.712Z,2.22
2023-05-21T21:42:24.082Z,1.90
2023-05-21T21:44:50.359Z,2.08
2023-05-21T21:47:16.618Z,2.63
2023-05-21T21:49:43.030Z,2.80
2023-05-21T21:52:10.785Z,2.30
2023-05-21T21:54:37.092Z,2.22
2023-05-21T21:57:03.685Z,2.40
2023-05-21T21:59:30.012Z,2.20
2023-05-21T22:01:56.387Z,2.00
2023-05-21T22:04:22.768Z,2.42
2023-05-21T22:06:49.221Z,2.45
2023-05-21T22:09:17.223Z,2.17
2023-05-21T22:11:43.767Z,2.15
2023-05-21T22:14:11.549Z,1.65
2023-05-21T22:16:37.886Z,2.30
2023-05-21T22:19:04.245Z,2.22
2023-05-21T22:21:32.824Z,2.40
2023-05-21T22:23:59.500Z,1.80
2023-05-21T22:26:25.831Z,2.25
2023-05-21T22:28:52.182Z,2.08
2023-05-21T22:31:18.508Z,2.20
2023-05-21T22:33:44.819Z,2.65
2023-05-21T22:36:11.202Z,2.28
2023-05-21T22:38:37.794Z,2.35
2023-05-21T22:41:04.180Z,2.53
2023-05-21T22:43:30.708Z,2.80
2023-05-21T22:45:57.028Z,2.28
2023-05-21T22:48:23.328Z,2.53
2023-05-21T22:50:50.285Z,2.15
2023-05-21T22:53:17.098Z,2.15
2023-05-21T22:55:43.823Z,2.42
2023-05-21T22:58:10.173Z,2.33
2023-05-21T23:00:36.576Z,2.40
2023-05-21T23:03:03.172Z,2.75
2023-05-21T23:05:29.581Z,2.40
2023-05-21T23:07:55.959Z,2.55
2023-05-21T23:10:22.293Z,2.80
2023-05-21T23:12:48.625Z,2.60
2023-05-21T23:15:14.953Z,2.63
2023-05-21T23:17:41.318Z,2.70
2023-05-21T23:20:08.835Z,2.40
2023-05-21T23:22:35.641Z,2.58
2023-05-21T23:25:02.153Z,2.38
2023-05-21T23:27:29.068Z,2.47
2023-05-21T23:29:55.697Z,2.83
2023-05-21T23:32:23.231Z,2.38
2023-05-21T23:34:49.590Z,2.17
2023-05-21T23:37:15.907Z,1.73
2023-05-21T23:39:44.143Z,2.40
2023-05-21T23:42:10.808Z,2.15
2023-05-21T23:44:37.096Z,1.95
2023-05-21T23:47:03.418Z,2.22
2023-05-21T23:49:29.713Z,2.30
2023-05-21T23:51:56.256Z,2.60
2023-05-21T23:54:22.612Z,2.13
2023-05-21T23:56:48.899Z,2.70
2023-05-21T23:59:16.969Z,3.25
